Time;durP1;ratioP1;P1;durP2;ratioP2;P2;SDS_P1;SDS_P2;PMS_P1;PMS_P2;Temp;Humidity;BMP_temperature;BMP_pressure;BME280_temperature;BME280_humidity;BME280_pressure;Samples;Min_cycle;Max_cycle;Signal;HPM_P1;HPM_P2
2021/07/08 00:01:43;;;;;;;8.37;5.67;;;14.40;99.90;;;;;;5109903;28;20650;-78
2021/07/08 00:04:11;;;;;;;8.57;5.27;;;14.30;99.90;;;;;;5096692;28;20672;-78
2021/07/08 00:06:38;;;;;;;10.00;5.43;;;14.20;99.90;;;;;;5102302;28;20241;-78
2021/07/08 00:09:07;;;;;;;12.30;5.60;;;14.20;99.90;;;;;;5104482;28;20710;-78
2021/07/08 00:11:35;;;;;;;12.07;5.53;;;14.20;99.90;;;;;;5100251;28;20257;-78
2021/07/08 00:14:03;;;;;;;7.80;5.30;;;14.10;99.90;;;;;;5092653;28;20253;-78
2021/07/08 00:16:31;;;;;;;10.43;5.40;;;14.10;99.90;;;;;;5102868;28;20202;-78
2021/07/08 00:18:59;;;;;;;9.17;5.27;;;14.10;99.90;;;;;;5112640;28;20279;-78
2021/07/08 00:21:27;;;;;;;9.30;5.13;;;14.10;99.90;;;;;;5112606;28;20317;-78
2021/07/08 00:23:54;;;;;;;11.80;5.10;;;14.10;99.90;;;;;;5115930;28;20281;-78
2021/07/08 00:26:21;;;;;;;11.07;5.33;;;14.10;99.90;;;;;;5116586;28;20597;-78
2021/07/08 00:28:49;;;;;;;11.70;5.60;;;14.00;99.90;;;;;;5109146;28;20229;-78
2021/07/08 00:31:16;;;;;;;8.67;5.20;;;14.00;99.90;;;;;;5096343;28;20229;-78
2021/07/08 00:33:43;;;;;;;8.90;4.90;;;14.00;99.90;;;;;;5099917;28;20281;-78
2021/07/08 00:36:10;;;;;;;9.97;5.03;;;14.00;99.90;;;;;;5116182;28;20244;-78
2021/07/08 00:38:37;;;;;;;10.87;5.27;;;13.90;99.90;;;;;;5114135;28;20240;-78
2021/07/08 00:41:04;;;;;;;8.37;5.23;;;13.90;99.90;;;;;;5103384;28;20300;-78
2021/07/08 00:43:31;;;;;;;9.57;5.57;;;13.90;99.90;;;;;;5116187;28;20232;-78
2021/07/08 00:46:00;;;;;;;13.40;6.13;;;13.80;99.90;;;;;;5112614;28;20190;-78
2021/07/08 00:48:27;;;;;;;8.23;5.13;;;13.70;99.90;;;;;;5095940;28;20724;-78
2021/07/08 00:50:54;;;;;;;10.33;5.40;;;13.70;99.90;;;;;;5096241;28;20226;-78
2021/07/08 00:53:23;;;;;;;9.43;5.70;;;13.70;99.90;;;;;;5115417;28;20291;-77
2021/07/08 00:55:56;;;;;;;13.10;5.50;;;13.60;99.90;;;;;;5109337;28;20199;-78
2021/07/08 00:58:23;;;;;;;8.57;5.70;;;13.70;99.90;;;;;;5114157;28;20312;-78
2021/07/08 01:00:50;;;;;;;8.43;5.27;;;13.80;99.90;;;;;;5113697;28;20253;-77
2021/07/08 01:03:20;;;;;;;9.90;5.93;;;13.90;99.90;;;;;;5096080;28;20230;-77
2021/07/08 01:05:50;;;;;;;12.70;5.83;;;14.00;99.90;;;;;;5096555;28;20675;-78
2021/07/08 01:08:17;;;;;;;9.87;5.03;;;14.10;99.90;;;;;;5115428;28;20240;-78
2021/07/08 01:10:45;;;;;;;11.20;5.57;;;14.10;99.90;;;;;;5115979;28;20229;-78
2021/07/08 01:13:13;;;;;;;10.27;5.90;;;14.10;99.90;;;;;;5115704;28;20229;-78
2021/07/08 01:15:40;;;;;;;9.97;5.37;;;14.00;99.90;;;;;;5115022;28;20696;-78
2021/07/08 01:18:07;;;;;;;10.00;5.27;;;14.00;99.90;;;;;;5115953;27;20253;-77
2021/07/08 01:20:38;;;;;;;9.27;5.60;;;13.90;99.90;;;;;;5115277;27;20613;-77
2021/07/08 01:23:06;;;;;;;15.33;6.70;;;13.90;99.90;;;;;;5115322;28;20237;-78
2021/07/08 01:25:36;;;;;;;12.00;6.30;;;13.90;99.90;;;;;;5114354;28;20285;-78
2021/07/08 01:28:06;;;;;;;11.30;6.60;;;13.90;99.90;;;;;;5108134;28;20555;-78
2021/07/08 01:30:34;;;;;;;10.77;7.73;;;13.90;99.90;;;;;;5094694;28;20238;-78
2021/07/08 01:33:01;;;;;;;14.33;7.33;;;14.00;99.90;;;;;;5095216;28;20252;-77
2021/07/08 01:35:29;;;;;;;15.73;7.90;;;14.00;99.90;;;;;;5093912;28;20230;-77
2021/07/08 01:37:56;;;;;;;11.70;7.40;;;14.00;99.90;;;;;;5100115;28;20229;-78
2021/07/08 01:40:25;;;;;;;14.50;7.93;;;14.00;99.90;;;;;;5094270;28;20287;-78
2021/07/08 01:42:52;;;;;;;11.77;7.30;;;14.00;99.90;;;;;;5094667;28;20710;-78
2021/07/08 01:45:19;;;;;;;11.30;7.53;;;14.00;99.90;;;;;;5094700;28;20547;-77
2021/07/08 01:47:47;;;;;;;14.33;8.47;;;14.00;99.90;;;;;;5094702;28;20289;-78
2021/07/08 01:50:17;;;;;;;16.77;8.27;;;13.90;99.90;;;;;;5094534;28;20198;-78
2021/07/08 01:52:45;;;;;;;14.87;7.60;;;14.00;99.90;;;;;;5094813;28;20230;-77
2021/07/08 01:55:13;;;;;;;12.20;7.73;;;14.00;99.90;;;;;;5094321;28;20285;-78
2021/07/08 01:57:43;;;;;;;13.90;7.00;;;14.00;99.90;;;;;;5093860;28;20249;-77
2021/07/08 02:00:12;;;;;;;15.67;7.90;;;14.00;99.90;;;;;;5094363;28;20301;-78
2021/07/08 02:02:39;;;;;;;9.63;7.03;;;14.00;99.90;;;;;;5093539;28;20223;-78
2021/07/08 02:05:07;;;;;;;13.43;7.13;;;13.90;99.90;;;;;;5093629;28;20622;-78
2021/07/08 02:07:34;;;;;;;14.60;7.27;;;13.90;99.90;;;;;;5093768;28;20612;-78
2021/07/08 02:10:01;;;;;;;12.60;7.20;;;13.90;99.90;;;;;;5093672;28;20626;-78
2021/07/08 02:12:28;;;;;;;12.00;7.30;;;13.90;99.90;;;;;;5109254;28;20304;-78
2021/07/08 02:14:57;;;;;;;13.53;7.27;;;13.90;99.90;;;;;;5098089;27;20229;-77
2021/07/08 02:17:24;;;;;;;15.20;7.23;;;13.90;99.90;;;;;;5114037;28;20288;-78
2021/07/08 02:19:51;;;;;;;10.60;6.77;;;13.90;99.90;;;;;;5096185;28;20222;-77
2021/07/08 02:22:17;;;;;;;10.13;6.83;;;13.90;99.90;;;;;;5093385;28;20317;-78
2021/07/08 02:24:44;;;;;;;13.80;7.03;;;13.90;99.90;;;;;;5103329;28;20730;-78
2021/07/08 02:27:11;;;;;;;11.87;6.97;;;13.90;99.90;;;;;;5114465;28;20236;-78
2021/07/08 02:29:38;;;;;;;10.90;7.07;;;13.90;99.90;;;;;;5114170;28;20638;-77
2021/07/08 02:32:08;;;;;;;10.50;6.80;;;13.90;99.90;;;;;;5114433;28;20244;-78
2021/07/08 02:34:37;;;;;;;10.03;6.57;;;13.80;99.90;;;;;;5112161;28;20233;-77
2021/07/08 02:37:05;;;;;;;12.40;6.33;;;13.80;99.90;;;;;;5093390;28;20206;-78
2021/07/08 02:39:32;;;;;;;10.80;6.83;;;13.80;99.90;;;;;;5104249;28;20261;-79
2021/07/08 02:41:59;;;;;;;10.07;6.07;;;13.80;99.90;;;;;;5093425;28;20272;-77
2021/07/08 02:44:26;;;;;;;12.50;7.17;;;13.80;99.90;;;;;;5093312;28;20678;-78
2021/07/08 02:46:53;;;;;;;12.47;7.03;;;13.70;99.90;;;;;;5092492;28;20283;-78
2021/07/08 02:49:21;;;;;;;10.63;6.57;;;13.70;99.90;;;;;;5099625;28;20237;-78
2021/07/08 02:51:48;;;;;;;11.47;6.57;;;13.70;99.90;;;;;;5112002;28;20233;-78
2021/07/08 02:54:15;;;;;;;10.43;6.70;;;13.70;99.90;;;;;;5114135;28;20251;-78
2021/07/08 02:56:42;;;;;;;11.80;6.83;;;13.70;99.90;;;;;;5113786;28;20225;-78
2021/07/08 02:59:09;;;;;;;11.97;7.07;;;13.70;99.90;;;;;;5093704;28;20225;-78
2021/07/08 03:01:36;;;;;;;11.80;6.67;;;13.70;99.90;;;;;;5093085;28;20709;-78
2021/07/08 03:04:05;;;;;;;12.60;6.50;;;13.70;99.90;;;;;;5093379;28;20244;-77
2021/07/08 03:06:34;;;;;;;11.67;6.60;;;13.70;99.90;;;;;;5093025;28;20720;-78
2021/07/08 03:09:01;;;;;;;11.27;6.33;;;13.70;99.90;;;;;;5096367;28;20195;-78
2021/07/08 03:11:28;;;;;;;11.83;6.77;;;13.70;99.90;;;;;;5092849;28;20889;-78
2021/07/08 03:13:55;;;;;;;12.17;6.47;;;13.70;99.90;;;;;;5093276;28;20248;-78
2021/07/08 03:16:22;;;;;;;10.30;6.33;;;13.70;99.90;;;;;;5092978;28;20281;-77
2021/07/08 03:18:49;;;;;;;12.27;6.83;;;13.70;99.90;;;;;;5092857;28;20230;-78
2021/07/08 03:21:16;;;;;;;12.07;6.40;;;13.70;99.90;;;;;;5092457;28;20710;-77
2021/07/08 03:23:44;;;;;;;11.97;6.27;;;13.70;99.90;;;;;;5093220;28;20661;-78
2021/07/08 03:26:11;;;;;;;12.67;6.20;;;13.70;99.90;;;;;;5097936;28;20284;-77
2021/07/08 03:28:38;;;;;;;11.20;6.20;;;13.70;99.90;;;;;;5103797;28;20260;-78
2021/07/08 03:31:05;;;;;;;14.37;6.07;;;13.70;99.90;;;;;;5104281;28;20229;-78
2021/07/08 03:33:32;;;;;;;9.73;5.73;;;13.80;99.90;;;;;;5092508;28;20679;-78
2021/07/08 03:35:59;;;;;;;14.10;6.43;;;13.80;99.90;;;;;;5103807;28;20249;-78
2021/07/08 03:38:26;;;;;;;9.80;6.63;;;13.70;99.90;;;;;;5093101;28;20234;-77
2021/07/08 03:40:54;;;;;;;9.27;6.50;;;13.70;99.90;;;;;;5092829;28;20244;-78
2021/07/08 03:43:21;;;;;;;11.33;6.40;;;13.70;99.90;;;;;;5097410;28;20353;-77
2021/07/08 03:45:48;;;;;;;13.27;6.97;;;13.70;99.90;;;;;;5113334;28;20259;-77
2021/07/08 03:48:15;;;;;;;11.67;6.53;;;13.80;99.90;;;;;;5112618;28;20704;-77
2021/07/08 03:50:42;;;;;;;13.07;6.57;;;13.80;99.90;;;;;;5104552;28;20230;-78
2021/07/08 03:53:09;;;;;;;11.07;5.83;;;13.80;99.90;;;;;;5092292;28;20539;-77
2021/07/08 03:55:36;;;;;;;12.60;6.73;;;13.70;99.90;;;;;;5092639;28;20194;-78
2021/07/08 03:58:04;;;;;;;13.97;6.40;;;13.70;99.90;;;;;;5091843;28;20312;-78
2021/07/08 04:00:34;;;;;;;13.13;6.60;;;13.60;99.90;;;;;;5097913;28;20238;-77
2021/07/08 04:03:03;;;;;;;11.83;6.93;;;13.60;99.90;;;;;;5112859;28;20257;-78
2021/07/08 04:05:30;;;;;;;12.03;7.30;;;13.60;99.90;;;;;;5112491;28;20625;-78
2021/07/08 04:07:57;;;;;;;11.77;7.63;;;13.60;99.90;;;;;;5111981;28;20740;-78
2021/07/08 04:10:24;;;;;;;16.07;8.57;;;13.60;99.90;;;;;;5108686;28;20228;-77
2021/07/08 04:12:51;;;;;;;14.07;8.97;;;13.60;99.90;;;;;;5112660;28;20194;-77
2021/07/08 04:15:20;;;;;;;13.43;7.87;;;13.60;99.90;;;;;;5100355;28;20244;-77
2021/07/08 04:17:47;;;;;;;16.20;8.43;;;13.60;99.90;;;;;;5092140;28;20704;-78
2021/07/08 04:20:16;;;;;;;12.97;7.33;;;13.60;99.90;;;;;;5098334;28;20232;-78
2021/07/08 04:22:43;;;;;;;13.40;7.23;;;13.60;99.90;;;;;;5105083;28;20716;-78
2021/07/08 04:25:12;;;;;;;13.47;7.50;;;13.70;99.90;;;;;;5098861;28;20233;-78
2021/07/08 04:27:39;;;;;;;14.37;7.30;;;13.70;99.90;;;;;;5092451;28;20328;-78
2021/07/08 04:30:09;;;;;;;11.90;7.70;;;13.60;99.90;;;;;;5103017;28;20229;-78
2021/07/08 04:32:38;;;;;;;12.50;6.90;;;13.60;99.90;;;;;;5112275;28;20602;-78
2021/07/08 04:35:06;;;;;;;14.80;7.37;;;13.60;99.90;;;;;;5112453;28;20233;-77
2021/07/08 04:37:39;;;;;;;13.20;7.43;;;13.60;99.90;;;;;;5109685;28;20248;-77
2021/07/08 04:40:07;;;;;;;14.20;7.00;;;13.70;99.90;;;;;;5092341;28;20203;-77
2021/07/08 04:42:34;;;;;;;13.97;7.37;;;13.70;99.90;;;;;;5091781;28;20310;-77
2021/07/08 04:45:01;;;;;;;13.53;7.30;;;13.70;99.90;;;;;;5091974;28;20665;-77
2021/07/08 04:47:28;;;;;;;15.23;7.30;;;13.70;99.90;;;;;;5092710;28;20635;-77
2021/07/08 04:49:56;;;;;;;11.70;7.30;;;13.80;99.90;;;;;;5112464;28;20313;-77
2021/07/08 04:52:23;;;;;;;12.70;7.23;;;13.80;99.90;;;;;;5112132;28;20539;-77
2021/07/08 04:54:50;;;;;;;14.40;7.57;;;13.80;99.90;;;;;;5111978;28;20233;-78
2021/07/08 04:57:18;;;;;;;14.10;6.70;;;13.80;99.90;;;;;;5112292;28;20669;-77
2021/07/08 04:59:47;;;;;;;14.17;8.33;;;13.80;99.90;;;;;;5111340;28;20234;-78
2021/07/08 05:02:14;;;;;;;15.10;7.63;;;13.80;99.90;;;;;;5102545;28;20214;-77
2021/07/08 05:04:41;;;;;;;13.93;7.83;;;13.80;99.90;;;;;;5092153;28;20226;-79
2021/07/08 05:07:11;;;;;;;11.70;7.13;;;13.80;99.90;;;;;;5091664;28;20263;-79
2021/07/08 05:09:38;;;;;;;12.47;7.43;;;13.80;99.90;;;;;;5092738;28;20198;-80
2021/07/08 05:12:06;;;;;;;13.83;8.43;;;13.80;99.90;;;;;;5095457;28;20204;-79
2021/07/08 05:14:34;;;;;;;11.73;8.47;;;13.90;99.90;;;;;;5098340;28;20674;-79
2021/07/08 05:17:01;;;;;;;14.90;8.23;;;13.90;99.90;;;;;;5103340;28;20221;-80
2021/07/08 05:19:28;;;;;;;16.53;8.50;;;13.90;99.90;;;;;;5102198;28;20631;-80
2021/07/08 05:21:55;;;;;;;14.70;8.40;;;13.90;99.90;;;;;;5111196;28;20254;-79
2021/07/08 05:24:25;;;;;;;15.63;8.17;;;14.00;99.90;;;;;;5105684;28;20292;-80
2021/07/08 05:26:53;;;;;;;12.60;7.83;;;14.00;99.90;;;;;;5100217;28;20198;-80
2021/07/08 05:29:22;;;;;;;13.83;7.37;;;14.10;99.90;;;;;;5101404;28;20278;-79
2021/07/08 05:31:49;;;;;;;12.27;7.77;;;14.10;99.90;;;;;;5103438;28;20700;-80
2021/07/08 05:34:16;;;;;;;12.90;7.43;;;14.20;99.90;;;;;;5106424;28;20280;-80
2021/07/08 05:36:43;;;;;;;13.67;8.03;;;14.20;99.90;;;;;;5106269;28;20254;-81
2021/07/08 05:39:10;;;;;;;13.33;7.70;;;14.20;99.90;;;;;;5103775;28;20284;-81
2021/07/08 05:41:38;;;;;;;16.37;8.77;;;14.20;99.90;;;;;;5102946;28;20234;-77
2021/07/08 05:44:06;;;;;;;13.87;8.67;;;14.20;99.90;;;;;;5104855;28;20305;-79
2021/07/08 05:46:33;;;;;;;14.37;8.93;;;14.30;99.90;;;;;;5111104;28;20194;-78
2021/07/08 05:49:00;;;;;;;13.03;9.33;;;14.50;99.90;;;;;;5097501;28;20260;-78
2021/07/08 05:51:27;;;;;;;13.37;8.97;;;14.50;99.90;;;;;;5103339;28;20572;-79
2021/07/08 05:53:58;;;;;;;17.17;9.53;;;14.60;99.90;;;;;;5102834;28;20255;-78
2021/07/08 05:56:25;;;;;;;14.87;8.60;;;14.60;99.90;;;;;;5102893;28;20716;-79
2021/07/08 05:58:53;;;;;;;13.43;8.67;;;14.60;99.90;;;;;;5100731;28;21716;-79
2021/07/08 06:01:21;;;;;;;14.87;9.60;;;14.60;99.90;;;;;;5106352;28;20234;-79
2021/07/08 06:03:48;;;;;;;13.97;8.67;;;14.60;99.90;;;;;;5093977;28;20222;-79
2021/07/08 06:06:15;;;;;;;14.90;9.70;;;14.50;99.90;;;;;;5094027;28;20626;-80
2021/07/08 06:08:42;;;;;;;15.37;10.63;;;14.50;99.90;;;;;;5094425;28;20780;-79
2021/07/08 06:11:09;;;;;;;15.50;10.90;;;14.50;99.90;;;;;;5094292;28;20198;-79
2021/07/08 06:13:36;;;;;;;17.83;10.60;;;14.60;99.90;;;;;;5093984;28;20252;-79
2021/07/08 06:16:05;;;;;;;16.57;10.50;;;14.60;99.90;;;;;;5093605;28;20233;-80
2021/07/08 06:18:32;;;;;;;16.13;10.37;;;14.70;99.90;;;;;;5093298;28;20260;-80
2021/07/08 06:20:59;;;;;;;15.60;9.47;;;14.80;99.90;;;;;;5093283;28;20301;-79
2021/07/08 06:23:26;;;;;;;17.63;9.43;;;14.80;99.90;;;;;;5092696;28;20765;-79
2021/07/08 06:25:53;;;;;;;16.27;10.10;;;14.90;99.90;;;;;;5093560;28;20237;-79
2021/07/08 06:28:20;;;;;;;15.20;10.57;;;15.00;99.90;;;;;;5094234;28;20285;-78
2021/07/08 06:30:47;;;;;;;16.67;9.80;;;15.10;99.90;;;;;;5093656;28;20203;-78
2021/07/08 06:33:16;;;;;;;13.40;9.57;;;15.20;99.90;;;;;;5093786;28;20222;-79
2021/07/08 06:35:43;;;;;;;11.13;9.10;;;15.20;99.90;;;;;;5094059;28;20234;-79
2021/07/08 06:38:10;;;;;;;13.77;9.37;;;15.10;99.90;;;;;;5101575;28;20210;-78
2021/07/08 06:40:37;;;;;;;14.00;8.40;;;15.20;99.90;;;;;;5093642;28;20198;-78
2021/07/08 06:43:04;;;;;;;14.13;8.73;;;15.30;99.90;;;;;;5093544;28;20673;-79
2021/07/08 06:45:35;;;;;;;14.07;8.50;;;15.60;99.90;;;;;;5093541;28;20285;-79
2021/07/08 06:48:02;;;;;;;13.40;8.57;;;15.60;99.90;;;;;;5104092;28;20202;-79
2021/07/08 06:50:31;;;;;;;13.53;8.80;;;15.70;99.90;;;;;;5113651;28;20680;-78
2021/07/08 06:52:59;;;;;;;13.97;8.90;;;15.80;99.90;;;;;;5113739;28;20665;-79
2021/07/08 06:55:26;;;;;;;13.37;9.27;;;16.00;99.90;;;;;;5114148;28;20206;-79
2021/07/08 06:57:53;;;;;;;14.43;9.10;;;16.10;99.90;;;;;;5113545;28;20329;-79
2021/07/08 07:00:22;;;;;;;11.43;8.27;;;16.10;99.90;;;;;;5099090;28;20206;-79
2021/07/08 07:02:49;;;;;;;10.87;8.23;;;16.60;99.90;;;;;;5097556;28;21023;-78
2021/07/08 07:05:16;;;;;;;11.87;8.40;;;17.00;99.90;;;;;;5113750;28;20194;-78
2021/07/08 07:07:45;;;;;;;12.93;8.17;;;17.00;99.90;;;;;;5113441;28;20692;-78
2021/07/08 07:10:12;;;;;;;11.53;8.37;;;17.00;99.90;;;;;;5113547;28;20197;-80
2021/07/08 07:12:43;;;;;;;9.73;7.10;;;17.00;99.90;;;;;;5113127;28;20224;-77
2021/07/08 07:15:10;;;;;;;11.93;7.73;;;16.70;99.90;;;;;;5113793;28;20292;-78
2021/07/08 07:17:39;;;;;;;11.77;8.40;;;16.80;99.90;;;;;;5113654;28;20225;-80
2021/07/08 07:20:08;;;;;;;10.27;7.13;;;16.70;99.90;;;;;;5113518;28;20247;-80
2021/07/08 07:22:37;;;;;;;11.50;7.73;;;16.70;99.90;;;;;;5107399;28;20275;-79
2021/07/08 07:25:07;;;;;;;10.53;7.77;;;16.80;99.90;;;;;;5092701;28;20298;-79
2021/07/08 07:27:34;;;;;;;11.30;8.20;;;16.70;99.90;;;;;;5092144;28;20198;-79
2021/07/08 07:30:03;;;;;;;10.50;8.03;;;16.70;99.90;;;;;;5092513;28;20237;-79
2021/07/08 07:32:30;;;;;;;10.07;7.47;;;16.70;99.90;;;;;;5101963;28;20289;-80
2021/07/08 07:34:57;;;;;;;11.03;7.97;;;16.80;99.90;;;;;;5113414;28;20216;-80
2021/07/08 07:37:25;;;;;;;9.83;8.17;;;17.10;99.90;;;;;;5113241;27;20229;-80
2021/07/08 07:39:51;;;;;;;10.93;8.53;;;17.20;99.90;;;;;;5112905;27;20806;-80
2021/07/08 07:42:20;;;;;;;10.10;7.53;;;17.20;99.90;;;;;;5113005;28;20263;-80
2021/07/08 07:44:48;;;;;;;12.63;8.40;;;16.90;99.90;;;;;;5112231;28;20719;-80
2021/07/08 07:47:15;;;;;;;9.47;8.00;;;16.70;99.90;;;;;;5113152;28;20613;-80
2021/07/08 07:49:43;;;;;;;9.40;7.30;;;16.60;99.90;;;;;;5111910;28;20749;-80
2021/07/08 07:52:12;;;;;;;10.43;8.00;;;16.70;99.90;;;;;;5112711;28;20807;-80
2021/07/08 07:54:39;;;;;;;9.83;7.90;;;16.80;99.90;;;;;;5112792;28;20241;-80
2021/07/08 07:57:08;;;;;;;9.73;6.97;;;17.20;99.90;;;;;;5112725;28;20198;-80
2021/07/08 07:59:37;;;;;;;8.23;6.53;;;17.60;99.90;;;;;;5112015;28;20294;-80
2021/07/08 08:02:09;;;;;;;10.43;6.50;;;17.90;99.90;;;;;;5111824;28;20225;-80
2021/07/08 08:04:42;;;;;;;12.82;6.68;;;18.50;99.90;;;;;;5112112;28;20229;-80
2021/07/08 08:09:54;;;;;;;8.90;6.32;;;19.40;99.90;;;;;;5112513;28;20197;-80
2021/07/08 08:12:21;;;;;;;7.40;6.15;;;19.20;99.90;;;;;;5112297;28;20292;-79
2021/07/08 08:14:50;;;;;;;9.02;6.10;;;18.70;99.90;;;;;;5112289;28;20232;-80
2021/07/08 08:17:17;;;;;;;7.95;5.90;;;19.00;99.90;;;;;;5112789;28;20194;-80
2021/07/08 08:19:44;;;;;;;6.72;5.78;;;19.50;99.90;;;;;;5112253;28;20828;-80
2021/07/08 08:22:11;;;;;;;7.88;6.28;;;20.20;99.90;;;;;;5110415;28;20249;-80
2021/07/08 08:24:39;;;;;;;9.02;6.75;;;21.00;99.90;;;;;;5092002;28;20221;-79
2021/07/08 08:27:07;;;;;;;8.98;6.28;;;20.70;99.90;;;;;;5092167;28;20191;-80
2021/07/08 08:29:34;;;;;;;8.50;5.63;;;20.30;99.90;;;;;;5095588;28;20281;-80
2021/07/08 08:32:02;;;;;;;6.55;5.63;;;19.80;99.90;;;;;;5111302;28;20280;-80
2021/07/08 08:34:29;;;;;;;7.65;6.10;;;20.10;99.90;;;;;;5112313;28;20225;-79
2021/07/08 08:36:56;;;;;;;8.50;6.03;;;19.80;99.90;;;;;;5111763;28;20237;-80
2021/07/08 08:39:23;;;;;;;8.40;6.40;;;19.50;99.90;;;;;;5111270;28;20252;-80
2021/07/08 08:41:50;;;;;;;7.82;6.55;;;19.40;99.90;;;;;;5112073;28;20225;-80
2021/07/08 08:44:17;;;;;;;8.93;7.10;;;19.10;99.90;;;;;;5101283;28;20256;-79
2021/07/08 08:46:44;;;;;;;9.95;6.80;;;18.50;99.90;;;;;;5095866;28;20572;-80
2021/07/08 08:49:12;;;;;;;10.20;6.45;;;18.40;99.90;;;;;;5096057;28;20228;-80
2021/07/08 08:51:40;;;;;;;7.63;6.43;;;18.40;99.90;;;;;;5096201;28;20234;-80
2021/07/08 08:54:07;;;;;;;8.85;6.85;;;18.80;99.90;;;;;;5095316;28;20230;-80
2021/07/08 08:56:34;;;;;;;8.45;6.20;;;19.50;99.90;;;;;;5114424;28;20728;-80
2021/07/08 08:59:01;;;;;;;8.48;6.28;;;19.60;99.90;;;;;;5115834;28;20320;-79
2021/07/08 09:01:29;;;;;;;9.50;6.00;;;20.40;99.90;;;;;;5115200;28;20284;-79
2021/07/08 09:03:56;;;;;;;8.57;5.60;;;20.70;99.90;;;;;;5115648;28;20650;-79
2021/07/08 09:06:24;;;;;;;9.23;5.72;;;20.50;99.90;;;;;;5115477;27;20202;-79
2021/07/08 09:08:53;;;;;;;8.20;5.30;;;21.30;99.90;;;;;;5116188;28;20233;-80
2021/07/08 09:11:21;;;;;;;5.95;4.93;;;21.30;99.90;;;;;;5100452;28;20205;-79
2021/07/08 09:13:51;;;;;;;6.65;4.43;;;21.40;99.90;;;;;;5095529;28;20849;-79
2021/07/08 09:16:20;;;;;;;8.10;4.55;;;21.30;99.90;;;;;;5095677;28;20230;-79
2021/07/08 09:19:02;;;;;;;6.80;5.35;;;21.50;99.90;;;;;;5095451;28;20245;-79
2021/07/08 09:21:31;;;;;;;7.53;5.25;;;21.30;99.90;;;;;;5094884;28;20218;-79
2021/07/08 09:24:14;;;;;;;7.57;5.55;;;21.10;99.90;;;;;;5110502;28;20708;-80
2021/07/08 09:26:44;;;;;;;8.38;5.45;;;21.00;99.90;;;;;;5114507;28;20201;-80
2021/07/08 09:29:12;;;;;;;8.48;5.70;;;20.70;99.90;;;;;;5115238;28;20202;-79
2021/07/08 09:31:40;;;;;;;6.15;5.55;;;21.10;99.90;;;;;;5115420;28;20704;-79
2021/07/08 09:34:15;;;;;;;7.68;5.80;;;20.90;99.90;;;;;;5115160;28;20811;-79
2021/07/08 09:36:43;;;;;;;7.97;5.75;;;20.70;99.90;;;;;;5115564;28;20726;-79
2021/07/08 09:39:12;;;;;;;8.63;5.22;;;20.20;99.90;;;;;;5114810;27;20280;-80
2021/07/08 09:41:53;;;;;;;6.50;5.50;;;20.90;99.90;;;;;;5115287;28;20204;-80
2021/07/08 09:44:25;;;;;;;7.70;5.82;;;20.70;99.90;;;;;;5114539;28;20233;-80
2021/07/08 09:46:53;;;;;;;6.28;5.57;;;20.40;99.90;;;;;;5115422;28;20621;-80
2021/07/08 09:49:21;;;;;;;8.60;6.07;;;20.50;99.90;;;;;;5111621;28;20229;-80
2021/07/08 09:51:49;;;;;;;7.75;5.70;;;20.30;99.90;;;;;;5114611;28;20250;-80
2021/07/08 09:54:42;;;;;;;9.82;6.68;;;20.70;99.90;;;;;;5114874;28;20194;-80
2021/07/08 09:57:09;;;;;;;9.00;7.25;;;20.30;99.90;;;;;;5114389;28;20202;-79
2021/07/08 09:59:37;;;;;;;11.02;9.02;;;20.40;99.90;;;;;;5114639;28;20233;-79
2021/07/08 10:02:05;;;;;;;11.85;7.90;;;20.70;99.90;;;;;;5106286;27;20195;-79
2021/07/08 10:04:32;;;;;;;10.05;6.72;;;20.80;99.90;;;;;;5095347;28;20225;-79
2021/07/08 15:47:55;;;;;;;10.05;5.10;;;19.40;99.90;;;;;;4825301;29;20579;-80
2021/07/08 15:50:22;;;;;;;6.70;5.57;;;19.30;99.90;;;;;;4935185;29;20266;-79
2021/07/08 15:52:48;;;;;;;13.93;10.43;;;19.30;99.90;;;;;;4996165;28;20731;-80
2021/07/08 15:55:15;;;;;;;18.52;13.38;;;19.50;99.90;;;;;;5033234;28;20291;-80
2021/07/08 15:57:42;;;;;;;22.10;15.20;;;19.90;99.90;;;;;;5033706;28;20236;-80
2021/07/08 16:00:11;;;;;;;17.30;11.93;;;20.20;99.90;;;;;;5033502;28;20240;-79
2021/07/08 16:02:38;;;;;;;17.35;11.70;;;20.30;99.90;;;;;;5033552;28;20224;-80
2021/07/08 16:05:08;;;;;;;13.35;10.43;;;20.30;99.90;;;;;;5032399;28;20201;-80
2021/07/08 16:07:36;;;;;;;13.38;9.23;;;20.80;99.90;;;;;;5034609;28;20242;-80
2021/07/08 16:10:04;;;;;;;9.32;7.50;;;22.30;99.90;;;;;;5052491;28;20674;-80
2021/07/08 16:12:31;;;;;;;9.18;6.95;;;23.80;99.90;;;;;;5047112;28;20203;-80
2021/07/08 16:14:58;;;;;;;8.25;6.38;;;23.10;99.90;;;;;;5032771;28;20205;-81
2021/07/08 16:17:26;;;;;;;7.85;5.78;;;22.30;99.90;;;;;;5042568;28;20200;-80
2021/07/08 16:19:53;;;;;;;8.25;5.72;;;22.60;99.90;;;;;;5047850;28;20204;-81
2021/07/08 16:22:21;;;;;;;9.15;5.90;;;22.00;99.90;;;;;;5033007;28;20342;-81
2021/07/08 16:24:50;;;;;;;7.25;5.30;;;21.80;99.90;;;;;;5046779;28;20234;-81
2021/07/08 16:27:17;;;;;;;6.95;5.07;;;21.70;99.90;;;;;;5050676;28;20200;-80
2021/07/08 16:29:44;;;;;;;6.97;4.43;;;21.60;99.90;;;;;;5032814;28;20231;-80
2021/07/08 16:32:12;;;;;;;5.05;3.95;;;21.50;99.90;;;;;;5051980;28;20736;-80
2021/07/08 16:34:38;;;;;;;6.00;4.60;;;21.40;99.90;;;;;;5048459;28;20616;-80
2021/07/08 16:37:05;;;;;;;6.57;4.38;;;21.50;99.90;;;;;;5053042;28;20291;-82
2021/07/08 16:39:34;;;;;;;6.68;4.13;;;21.80;99.90;;;;;;5034504;28;20239;-81
2021/07/08 16:42:02;;;;;;;6.22;4.35;;;21.50;99.90;;;;;;5045583;28;20776;-81
2021/07/08 16:44:29;;;;;;;6.25;4.68;;;21.30;99.90;;;;;;5051774;28;20203;-81
2021/07/08 16:46:56;;;;;;;8.57;6.07;;;21.40;99.90;;;;;;5046420;28;20327;-80
2021/07/08 16:49:23;;;;;;;7.32;5.50;;;21.20;99.90;;;;;;5032608;28;20279;-80
2021/07/08 16:51:50;;;;;;;9.05;5.20;;;21.30;99.90;;;;;;5044708;28;20698;-78
2021/07/08 16:54:17;;;;;;;7.53;4.97;;;20.90;99.90;;;;;;5050407;28;20684;-78
2021/07/08 16:56:45;;;;;;;7.03;4.70;;;20.80;99.90;;;;;;5052511;28;20306;-79
2021/07/08 16:59:12;;;;;;;6.30;4.55;;;20.90;99.90;;;;;;5048967;28;20614;-79
2021/07/08 17:01:39;;;;;;;7.85;5.22;;;21.00;99.90;;;;;;5033280;28;20274;-78
2021/07/08 17:04:06;;;;;;;8.85;5.15;;;20.80;99.90;;;;;;5045136;28;20306;-79
2021/07/08 17:06:33;;;;;;;6.20;4.88;;;20.70;99.90;;;;;;5041330;28;20200;-79
2021/07/08 17:09:04;;;;;;;7.43;5.50;;;20.70;99.90;;;;;;5033544;28;20280;-79
2021/07/08 17:11:31;;;;;;;7.72;5.65;;;20.60;99.90;;;;;;5034941;28;20593;-79
2021/07/08 17:14:00;;;;;;;8.93;5.95;;;20.60;99.90;;;;;;5039947;28;20292;-79
2021/07/08 17:16:28;;;;;;;7.38;5.45;;;20.60;99.90;;;;;;5040543;28;20231;-80
2021/07/08 17:18:55;;;;;;;7.00;4.97;;;20.60;99.90;;;;;;5052047;28;20672;-77
2021/07/08 17:21:22;;;;;;;8.70;5.30;;;20.40;99.90;;;;;;5039962;28;20229;-78
2021/07/08 17:23:48;;;;;;;10.35;5.22;;;20.40;99.90;;;;;;5036488;28;20235;-79
2021/07/08 17:26:15;;;;;;;6.10;4.90;;;20.40;99.90;;;;;;5051290;28;20780;-78
2021/07/08 17:28:42;;;;;;;8.75;4.95;;;20.50;99.90;;;;;;5041622;28;20208;-79
2021/07/08 17:31:10;;;;;;;6.55;4.55;;;20.40;99.90;;;;;;5035612;28;20687;-78
2021/07/08 17:33:37;;;;;;;5.32;4.15;;;20.40;99.90;;;;;;5032262;28;20235;-78
2021/07/08 17:36:05;;;;;;;7.03;5.18;;;20.10;99.90;;;;;;5031750;28;20762;-77
2021/07/08 17:38:32;;;;;;;6.20;4.93;;;19.80;99.90;;;;;;5040741;28;20652;-76
2021/07/08 17:40:59;;;;;;;6.97;4.82;;;19.80;99.90;;;;;;5032173;28;20262;-76
2021/07/08 17:43:26;;;;;;;7.35;4.80;;;19.80;99.90;;;;;;5047486;28;20279;-77
2021/07/08 17:45:53;;;;;;;7.10;4.78;;;19.90;99.90;;;;;;5050884;28;20326;-76
2021/07/08 17:48:21;;;;;;;6.07;4.47;;;19.90;99.90;;;;;;5033031;28;20200;-76
2021/07/08 17:50:48;;;;;;;6.95;4.78;;;20.00;99.90;;;;;;5035862;28;20300;-76
2021/07/08 17:53:15;;;;;;;7.10;5.00;;;20.00;99.90;;;;;;5044557;28;20303;-77
2021/07/08 17:55:42;;;;;;;7.25;5.00;;;20.20;99.90;;;;;;5050776;28;20192;-77
2021/07/08 17:58:09;;;;;;;6.45;4.38;;;20.10;99.90;;;;;;5042316;28;20240;-77
2021/07/08 18:00:36;;;;;;;6.70;5.00;;;20.30;99.90;;;;;;5039853;28;20304;-77
2021/07/08 18:03:03;;;;;;;6.03;4.30;;;19.80;99.90;;;;;;5051731;28;20204;-76
2021/07/08 18:05:31;;;;;;;5.53;4.22;;;19.60;99.90;;;;;;5051019;28;20663;-79
2021/07/08 18:07:58;;;;;;;6.45;4.50;;;19.70;99.90;;;;;;5049808;28;20254;-78
2021/07/08 18:10:25;;;;;;;6.38;4.47;;;19.60;99.90;;;;;;5037493;28;20284;-77
2021/07/08 18:12:52;;;;;;;8.05;4.97;;;19.40;99.90;;;;;;5040876;28;20656;-77
2021/07/08 18:15:20;;;;;;;5.88;4.53;;;19.20;99.90;;;;;;5038220;28;20203;-77
2021/07/08 18:17:49;;;;;;;6.00;4.63;;;19.00;99.90;;;;;;5048324;28;20199;-78
2021/07/08 18:20:17;;;;;;;6.70;4.57;;;18.90;99.90;;;;;;5031375;28;20330;-77
2021/07/08 18:22:46;;;;;;;6.90;4.50;;;18.90;99.90;;;;;;5039532;28;20244;-77
2021/07/08 18:25:17;;;;;;;5.15;4.00;;;18.80;99.90;;;;;;5051067;28;20291;-77
2021/07/08 18:27:44;;;;;;;6.72;4.35;;;18.70;99.90;;;;;;5037289;28;20266;-77